Amapa, Brazil
Current Conditions -  °F | °C
As of 7:00 AM on Friday 31 Oct 2014 (Local Time) from SBMQ Reporting Station
Few Clouds Few Clouds  
Wind Chill: 77°   Ceiling: Unl
Heat Index: 78°   Visibility: 6mi
Dew Point: 75°   Wind: 7mph
Humidity: 94%   Direction: 30°NNE
Pressure: 29.83"   Gusts: NA
Location:  2.02°N, 50.78°W
Report Text: SBMQ 311000Z 03006KT 9999 FEW017 25/24 Q1010
Loading
Personal Weather Stations






























Interactive Weather Map
Tropical Storm Tracking
New forecast layout! Learn more

10-Day Weather Forecast

Advertisements
Track Severe Weather on mobile